sensor_id;sensor_type;location;lat;lon;timestamp;P1;durP1;ratioP1;P2;durP2;ratioP2
71572;SDS011;59408;51.032;9.410;2023-08-07T00:00:18;2.20;;;0.70;;
71572;SDS011;59408;51.032;9.410;2023-08-07T00:02:44;2.20;;;0.68;;
71572;SDS011;59408;51.032;9.410;2023-08-07T00:05:11;2.53;;;0.70;;
71572;SDS011;59408;51.032;9.410;2023-08-07T00:07:37;2.85;;;0.80;;
71572;SDS011;59408;51.032;9.410;2023-08-07T00:10:06;2.40;;;0.80;;
71572;SDS011;59408;51.032;9.410;2023-08-07T00:12:33;3.22;;;0.80;;
71572;SDS011;59408;51.032;9.410;2023-08-07T00:15:00;2.67;;;0.70;;
71572;SDS011;59408;51.032;9.410;2023-08-07T00:17:27;3.15;;;0.73;;
71572;SDS011;59408;51.032;9.410;2023-08-07T00:19:53;2.42;;;0.80;;
71572;SDS011;59408;51.032;9.410;2023-08-07T00:22:20;2.17;;;0.70;;
71572;SDS011;59408;51.032;9.410;2023-08-07T00:24:47;1.80;;;0.60;;
71572;SDS011;59408;51.032;9.410;2023-08-07T00:27:15;2.42;;;0.50;;
71572;SDS011;59408;51.032;9.410;2023-08-07T00:29:41;2.60;;;0.60;;
71572;SDS011;59408;51.032;9.410;2023-08-07T00:32:08;2.25;;;0.65;;
71572;SDS011;59408;51.032;9.410;2023-08-07T00:34:35;2.60;;;0.70;;
71572;SDS011;59408;51.032;9.410;2023-08-07T00:37:01;2.25;;;0.68;;
71572;SDS011;59408;51.032;9.410;2023-08-07T00:39:28;2.33;;;0.65;;
71572;SDS011;59408;51.032;9.410;2023-08-07T00:41:54;2.28;;;0.63;;
71572;SDS011;59408;51.032;9.410;2023-08-07T00:44:22;1.80;;;0.50;;
71572;SDS011;59408;51.032;9.410;2023-08-07T00:46:49;1.90;;;0.60;;
71572;SDS011;59408;51.032;9.410;2023-08-07T00:49:16;3.25;;;0.60;;
71572;SDS011;59408;51.032;9.410;2023-08-07T00:51:44;2.78;;;0.68;;
71572;SDS011;59408;51.032;9.410;2023-08-07T00:54:12;1.77;;;0.50;;
71572;SDS011;59408;51.032;9.410;2023-08-07T00:56:44;2.20;;;0.60;;
71572;SDS011;59408;51.032;9.410;2023-08-07T00:59:12;3.70;;;0.80;;
71572;SDS011;59408;51.032;9.410;2023-08-07T01:01:41;2.20;;;0.73;;
71572;SDS011;59408;51.032;9.410;2023-08-07T01:04:07;3.13;;;0.70;;
71572;SDS011;59408;51.032;9.410;2023-08-07T01:06:34;4.30;;;0.73;;
71572;SDS011;59408;51.032;9.410;2023-08-07T01:09:00;2.53;;;0.80;;
71572;SDS011;59408;51.032;9.410;2023-08-07T01:11:31;8.73;;;1.20;;
71572;SDS011;59408;51.032;9.410;2023-08-07T01:14:02;3.15;;;0.90;;
71572;SDS011;59408;51.032;9.410;2023-08-07T01:16:37;3.70;;;1.02;;
71572;SDS011;59408;51.032;9.410;2023-08-07T01:19:09;4.10;;;0.82;;
71572;SDS011;59408;51.032;9.410;2023-08-07T01:21:46;3.53;;;0.98;;
71572;SDS011;59408;51.032;9.410;2023-08-07T01:24:14;4.97;;;1.23;;
71572;SDS011;59408;51.032;9.410;2023-08-07T01:26:41;5.32;;;1.13;;
71572;SDS011;59408;51.032;9.410;2023-08-07T01:29:12;4.00;;;1.33;;
71572;SDS011;59408;51.032;9.410;2023-08-07T01:31:43;4.07;;;0.98;;
71572;SDS011;59408;51.032;9.410;2023-08-07T01:34:13;5.03;;;1.33;;
71572;SDS011;59408;51.032;9.410;2023-08-07T01:36:43;3.87;;;1.20;;
71572;SDS011;59408;51.032;9.410;2023-08-07T01:39:13;4.50;;;1.30;;
71572;SDS011;59408;51.032;9.410;2023-08-07T01:41:40;4.70;;;1.00;;
71572;SDS011;59408;51.032;9.410;2023-08-07T01:44:07;4.28;;;1.30;;
71572;SDS011;59408;51.032;9.410;2023-08-07T01:46:34;5.13;;;1.30;;
71572;SDS011;59408;51.032;9.410;2023-08-07T01:49:01;4.77;;;1.20;;
71572;SDS011;59408;51.032;9.410;2023-08-07T01:51:27;3.35;;;1.10;;
71572;SDS011;59408;51.032;9.410;2023-08-07T01:53:54;3.78;;;1.10;;
71572;SDS011;59408;51.032;9.410;2023-08-07T01:56:22;3.40;;;1.00;;
71572;SDS011;59408;51.032;9.410;2023-08-07T01:58:48;4.18;;;0.90;;
71572;SDS011;59408;51.032;9.410;2023-08-07T02:01:15;4.57;;;1.00;;
71572;SDS011;59408;51.032;9.410;2023-08-07T02:03:41;3.95;;;0.98;;
71572;SDS011;59408;51.032;9.410;2023-08-07T02:06:08;3.08;;;0.77;;
71572;SDS011;59408;51.032;9.410;2023-08-07T02:08:35;4.32;;;0.95;;
71572;SDS011;59408;51.032;9.410;2023-08-07T02:11:01;3.05;;;0.90;;
71572;SDS011;59408;51.032;9.410;2023-08-07T02:13:29;2.80;;;0.70;;
71572;SDS011;59408;51.032;9.410;2023-08-07T02:15:56;5.72;;;0.80;;
71572;SDS011;59408;51.032;9.410;2023-08-07T02:18:22;2.78;;;0.68;;
71572;SDS011;59408;51.032;9.410;2023-08-07T02:20:49;2.92;;;0.60;;
71572;SDS011;59408;51.032;9.410;2023-08-07T02:23:15;3.65;;;0.82;;
71572;SDS011;59408;51.032;9.410;2023-08-07T02:25:42;3.33;;;0.90;;
71572;SDS011;59408;51.032;9.410;2023-08-07T02:28:08;3.22;;;0.43;;
71572;SDS011;59408;51.032;9.410;2023-08-07T02:30:36;4.35;;;0.63;;
71572;SDS011;59408;51.032;9.410;2023-08-07T02:33:03;3.10;;;0.52;;
71572;SDS011;59408;51.032;9.410;2023-08-07T02:35:29;2.08;;;0.60;;
71572;SDS011;59408;51.032;9.410;2023-08-07T02:37:56;3.73;;;0.60;;
71572;SDS011;59408;51.032;9.410;2023-08-07T02:40:23;2.47;;;0.40;;
71572;SDS011;59408;51.032;9.410;2023-08-07T02:42:49;2.17;;;0.50;;
71572;SDS011;59408;51.032;9.410;2023-08-07T02:45:16;1.67;;;0.47;;
71572;SDS011;59408;51.032;9.410;2023-08-07T02:47:44;2.97;;;0.60;;
71572;SDS011;59408;51.032;9.410;2023-08-07T02:50:10;1.47;;;0.40;;
71572;SDS011;59408;51.032;9.410;2023-08-07T02:52:37;1.23;;;0.30;;
71572;SDS011;59408;51.032;9.410;2023-08-07T02:55:04;2.80;;;0.45;;
71572;SDS011;59408;51.032;9.410;2023-08-07T02:57:31;1.25;;;0.30;;
71572;SDS011;59408;51.032;9.410;2023-08-07T02:59:58;1.50;;;0.40;;
71572;SDS011;59408;51.032;9.410;2023-08-07T03:02:24;1.27;;;0.30;;
71572;SDS011;59408;51.032;9.410;2023-08-07T03:04:52;1.95;;;0.57;;
71572;SDS011;59408;51.032;9.410;2023-08-07T03:07:19;4.38;;;0.40;;
71572;SDS011;59408;51.032;9.410;2023-08-07T03:09:46;1.15;;;0.32;;
71572;SDS011;59408;51.032;9.410;2023-08-07T03:12:12;1.17;;;0.32;;
71572;SDS011;59408;51.032;9.410;2023-08-07T03:14:39;2.93;;;0.40;;
71572;SDS011;59408;51.032;9.410;2023-08-07T03:17:06;1.23;;;0.30;;
71572;SDS011;59408;51.032;9.410;2023-08-07T03:19:33;1.20;;;0.35;;
71572;SDS011;59408;51.032;9.410;2023-08-07T03:22:01;1.10;;;0.50;;
71572;SDS011;59408;51.032;9.410;2023-08-07T03:24:27;1.88;;;0.40;;
71572;SDS011;59408;51.032;9.410;2023-08-07T03:26:54;1.67;;;0.40;;
71572;SDS011;59408;51.032;9.410;2023-08-07T03:29:21;1.20;;;0.45;;
71572;SDS011;59408;51.032;9.410;2023-08-07T03:31:48;1.48;;;0.40;;
71572;SDS011;59408;51.032;9.410;2023-08-07T03:34:14;3.25;;;0.30;;
71572;SDS011;59408;51.032;9.410;2023-08-07T03:36:41;1.08;;;0.30;;
71572;SDS011;59408;51.032;9.410;2023-08-07T03:39:09;1.10;;;0.40;;
71572;SDS011;59408;51.032;9.410;2023-08-07T03:41:36;2.28;;;0.30;;
71572;SDS011;59408;51.032;9.410;2023-08-07T03:44:02;1.60;;;0.70;;
71572;SDS011;59408;51.032;9.410;2023-08-07T03:46:29;0.95;;;0.30;;
71572;SDS011;59408;51.032;9.410;2023-08-07T03:48:56;1.60;;;0.40;;
71572;SDS011;59408;51.032;9.410;2023-08-07T03:51:22;1.70;;;0.50;;
71572;SDS011;59408;51.032;9.410;2023-08-07T03:53:49;1.25;;;0.30;;
71572;SDS011;59408;51.032;9.410;2023-08-07T03:56:17;3.20;;;0.30;;
71572;SDS011;59408;51.032;9.410;2023-08-07T03:58:43;1.90;;;0.30;;
71572;SDS011;59408;51.032;9.410;2023-08-07T04:01:10;2.03;;;0.30;;
71572;SDS011;59408;51.032;9.410;2023-08-07T04:03:37;1.87;;;0.30;;
71572;SDS011;59408;51.032;9.410;2023-08-07T04:06:04;0.98;;;0.40;;
71572;SDS011;59408;51.032;9.410;2023-08-07T04:08:30;1.30;;;0.40;;
71572;SDS011;59408;51.032;9.410;2023-08-07T04:10:57;1.08;;;0.30;;
71572;SDS011;59408;51.032;9.410;2023-08-07T04:13:26;1.00;;;0.40;;
71572;SDS011;59408;51.032;9.410;2023-08-07T04:15:53;1.00;;;0.40;;
71572;SDS011;59408;51.032;9.410;2023-08-07T04:18:20;0.90;;;0.32;;
71572;SDS011;59408;51.032;9.410;2023-08-07T04:20:48;1.35;;;0.50;;
71572;SDS011;59408;51.032;9.410;2023-08-07T04:23:15;0.93;;;0.40;;
71572;SDS011;59408;51.032;9.410;2023-08-07T04:25:42;1.15;;;0.45;;
71572;SDS011;59408;51.032;9.410;2023-08-07T04:28:08;1.00;;;0.40;;
71572;SDS011;59408;51.032;9.410;2023-08-07T04:30:36;1.48;;;0.47;;
71572;SDS011;59408;51.032;9.410;2023-08-07T04:33:03;1.02;;;0.47;;
71572;SDS011;59408;51.032;9.410;2023-08-07T04:35:29;1.35;;;0.32;;
71572;SDS011;59408;51.032;9.410;2023-08-07T04:37:56;1.27;;;0.35;;
71572;SDS011;59408;51.032;9.410;2023-08-07T04:40:23;1.73;;;0.33;;
71572;SDS011;59408;51.032;9.410;2023-08-07T04:42:49;1.25;;;0.30;;
71572;SDS011;59408;51.032;9.410;2023-08-07T04:45:16;1.33;;;0.40;;
71572;SDS011;59408;51.032;9.410;2023-08-07T04:47:44;0.65;;;0.30;;
71572;SDS011;59408;51.032;9.410;2023-08-07T04:50:10;1.58;;;0.40;;
71572;SDS011;59408;51.032;9.410;2023-08-07T04:52:37;1.50;;;0.40;;
71572;SDS011;59408;51.032;9.410;2023-08-07T04:55:04;1.90;;;0.30;;
71572;SDS011;59408;51.032;9.410;2023-08-07T04:57:31;1.48;;;0.30;;
71572;SDS011;59408;51.032;9.410;2023-08-07T04:59:58;5.45;;;0.50;;
71572;SDS011;59408;51.032;9.410;2023-08-07T05:02:24;2.17;;;0.75;;
71572;SDS011;59408;51.032;9.410;2023-08-07T05:04:52;1.77;;;0.37;;
71572;SDS011;59408;51.032;9.410;2023-08-07T05:07:19;1.65;;;0.40;;
71572;SDS011;59408;51.032;9.410;2023-08-07T05:09:45;1.33;;;0.38;;
71572;SDS011;59408;51.032;9.410;2023-08-07T05:12:12;2.85;;;0.40;;
71572;SDS011;59408;51.032;9.410;2023-08-07T05:14:39;1.13;;;0.40;;
71572;SDS011;59408;51.032;9.410;2023-08-07T05:17:05;1.00;;;0.30;;
71572;SDS011;59408;51.032;9.410;2023-08-07T05:19:32;1.20;;;0.40;;
71572;SDS011;59408;51.032;9.410;2023-08-07T05:22:00;2.42;;;0.50;;
71572;SDS011;59408;51.032;9.410;2023-08-07T05:24:26;1.88;;;0.40;;
71572;SDS011;59408;51.032;9.410;2023-08-07T05:26:53;2.03;;;0.32;;
71572;SDS011;59408;51.032;9.410;2023-08-07T05:29:19;2.30;;;0.30;;
71572;SDS011;59408;51.032;9.410;2023-08-07T05:31:46;1.00;;;0.30;;
71572;SDS011;59408;51.032;9.410;2023-08-07T05:34:12;1.13;;;0.45;;
71572;SDS011;59408;51.032;9.410;2023-08-07T05:36:39;1.65;;;0.40;;
71572;SDS011;59408;51.032;9.410;2023-08-07T05:39:07;1.50;;;0.47;;
71572;SDS011;59408;51.032;9.410;2023-08-07T05:41:33;2.07;;;0.40;;
71572;SDS011;59408;51.032;9.410;2023-08-07T05:44:00;2.13;;;0.60;;
71572;SDS011;59408;51.032;9.410;2023-08-07T05:46:27;1.10;;;0.50;;
71572;SDS011;59408;51.032;9.410;2023-08-07T05:48:53;1.23;;;0.40;;
71572;SDS011;59408;51.032;9.410;2023-08-07T05:51:20;1.70;;;0.30;;
71572;SDS011;59408;51.032;9.410;2023-08-07T05:53:47;1.07;;;0.40;;
71572;SDS011;59408;51.032;9.410;2023-08-07T05:56:14;1.10;;;0.30;;
71572;SDS011;59408;51.032;9.410;2023-08-07T05:58:41;1.40;;;0.30;;
71572;SDS011;59408;51.032;9.410;2023-08-07T06:01:08;2.42;;;0.40;;
71572;SDS011;59408;51.032;9.410;2023-08-07T06:03:34;1.05;;;0.30;;
71572;SDS011;59408;51.032;9.410;2023-08-07T06:06:01;1.17;;;0.40;;
71572;SDS011;59408;51.032;9.410;2023-08-07T06:08:27;1.13;;;0.40;;
71572;SDS011;59408;51.032;9.410;2023-08-07T06:10:54;3.38;;;0.40;;
71572;SDS011;59408;51.032;9.410;2023-08-07T06:13:22;1.65;;;0.40;;
71572;SDS011;59408;51.032;9.410;2023-08-07T06:16:01;2.13;;;0.40;;
71572;SDS011;59408;51.032;9.410;2023-08-07T06:18:28;1.33;;;0.40;;
71572;SDS011;59408;51.032;9.410;2023-08-07T06:20:55;1.17;;;0.40;;
71572;SDS011;59408;51.032;9.410;2023-08-07T06:23:22;2.20;;;0.50;;
71572;SDS011;59408;51.032;9.410;2023-08-07T06:25:48;2.45;;;0.40;;
71572;SDS011;59408;51.032;9.410;2023-08-07T06:28:22;1.58;;;0.30;;
71572;SDS011;59408;51.032;9.410;2023-08-07T06:30:49;1.03;;;0.40;;
71572;SDS011;59408;51.032;9.410;2023-08-07T06:33:15;1.38;;;0.30;;
71572;SDS011;59408;51.032;9.410;2023-08-07T06:35:42;1.27;;;0.40;;
71572;SDS011;59408;51.032;9.410;2023-08-07T06:38:08;1.75;;;0.40;;
71572;SDS011;59408;51.032;9.410;2023-08-07T06:40:35;1.80;;;0.30;;
71572;SDS011;59408;51.032;9.410;2023-08-07T06:43:02;1.40;;;0.40;;
71572;SDS011;59408;51.032;9.410;2023-08-07T06:45:30;1.17;;;0.40;;
71572;SDS011;59408;51.032;9.410;2023-08-07T06:47:56;2.28;;;0.30;;
71572;SDS011;59408;51.032;9.410;2023-08-07T06:50:23;1.27;;;0.30;;
71572;SDS011;59408;51.032;9.410;2023-08-07T06:52:50;1.27;;;0.40;;
71572;SDS011;59408;51.032;9.410;2023-08-07T06:55:17;2.57;;;0.40;;
71572;SDS011;59408;51.032;9.410;2023-08-07T06:57:43;1.60;;;0.38;;
71572;SDS011;59408;51.032;9.410;2023-08-07T07:00:10;1.30;;;0.40;;
71572;SDS011;59408;51.032;9.410;2023-08-07T07:02:39;1.10;;;0.30;;
71572;SDS011;59408;51.032;9.410;2023-08-07T07:05:06;1.08;;;0.40;;
71572;SDS011;59408;51.032;9.410;2023-08-07T07:07:32;0.97;;;0.40;;
71572;SDS011;59408;51.032;9.410;2023-08-07T07:09:59;1.00;;;0.32;;
71572;SDS011;59408;51.032;9.410;2023-08-07T07:12:26;1.35;;;0.40;;
71572;SDS011;59408;51.032;9.410;2023-08-07T07:14:52;1.58;;;0.38;;
71572;SDS011;59408;51.032;9.410;2023-08-07T07:17:19;2.75;;;0.47;;
71572;SDS011;59408;51.032;9.410;2023-08-07T07:19:47;1.07;;;0.30;;
71572;SDS011;59408;51.032;9.410;2023-08-07T07:22:14;1.70;;;0.40;;
71572;SDS011;59408;51.032;9.410;2023-08-07T07:24:40;2.17;;;0.40;;
71572;SDS011;59408;51.032;9.410;2023-08-07T07:27:07;1.50;;;0.40;;
71572;SDS011;59408;51.032;9.410;2023-08-07T07:29:33;1.60;;;0.40;;
71572;SDS011;59408;51.032;9.410;2023-08-07T07:32:00;2.13;;;0.50;;
71572;SDS011;59408;51.032;9.410;2023-08-07T07:34:27;1.85;;;0.50;;
71572;SDS011;59408;51.032;9.410;2023-08-07T07:36:55;2.60;;;0.55;;
71572;SDS011;59408;51.032;9.410;2023-08-07T07:39:21;1.92;;;0.50;;
71572;SDS011;59408;51.032;9.410;2023-08-07T07:41:48;1.75;;;0.55;;
71572;SDS011;59408;51.032;9.410;2023-08-07T07:44:14;2.30;;;0.50;;
71572;SDS011;59408;51.032;9.410;2023-08-07T07:46:41;2.05;;;0.50;;
71572;SDS011;59408;51.032;9.410;2023-08-07T07:49:07;2.05;;;0.60;;
71572;SDS011;59408;51.032;9.410;2023-08-07T07:51:34;3.78;;;0.60;;
71572;SDS011;59408;51.032;9.410;2023-08-07T07:54:02;2.33;;;0.70;;
71572;SDS011;59408;51.032;9.410;2023-08-07T07:56:40;1.90;;;0.43;;
71572;SDS011;59408;51.032;9.410;2023-08-07T07:59:07;3.15;;;0.50;;
71572;SDS011;59408;51.032;9.410;2023-08-07T08:01:34;2.85;;;0.60;;
71572;SDS011;59408;51.032;9.410;2023-08-07T08:04:01;2.45;;;0.60;;
71572;SDS011;59408;51.032;9.410;2023-08-07T08:06:28;2.28;;;0.60;;
71572;SDS011;59408;51.032;9.410;2023-08-07T08:08:55;2.50;;;0.60;;
71572;SDS011;59408;51.032;9.410;2023-08-07T08:11:23;2.08;;;0.43;;
71572;SDS011;59408;51.032;9.410;2023-08-07T08:13:49;2.13;;;0.50;;
71572;SDS011;59408;51.032;9.410;2023-08-07T08:16:17;2.80;;;0.55;;
71572;SDS011;59408;51.032;9.410;2023-08-07T08:18:44;2.13;;;0.50;;
71572;SDS011;59408;51.032;9.410;2023-08-07T08:21:11;3.23;;;0.70;;
71572;SDS011;59408;51.032;9.410;2023-08-07T08:23:37;1.90;;;0.50;;
71572;SDS011;59408;51.032;9.410;2023-08-07T08:26:04;3.00;;;0.50;;
71572;SDS011;59408;51.032;9.410;2023-08-07T08:28:32;2.55;;;0.65;;
71572;SDS011;59408;51.032;9.410;2023-08-07T08:30:59;1.92;;;0.50;;
71572;SDS011;59408;51.032;9.410;2023-08-07T08:33:26;2.83;;;0.63;;
71572;SDS011;59408;51.032;9.410;2023-08-07T08:35:52;1.75;;;0.43;;
71572;SDS011;59408;51.032;9.410;2023-08-07T08:38:19;2.03;;;0.50;;
71572;SDS011;59408;51.032;9.410;2023-08-07T08:40:45;1.65;;;0.47;;
71572;SDS011;59408;51.032;9.410;2023-08-07T08:43:13;2.85;;;0.70;;
71572;SDS011;59408;51.032;9.410;2023-08-07T08:45:42;10.80;;;1.10;;
71572;SDS011;59408;51.032;9.410;2023-08-07T08:48:11;2.15;;;0.55;;
71572;SDS011;59408;51.032;9.410;2023-08-07T08:50:45;1.63;;;0.50;;
71572;SDS011;59408;51.032;9.410;2023-08-07T08:53:12;3.70;;;0.65;;
71572;SDS011;59408;51.032;9.410;2023-08-07T08:55:40;2.20;;;0.45;;
71572;SDS011;59408;51.032;9.410;2023-08-07T08:58:07;1.77;;;0.47;;
71572;SDS011;59408;51.032;9.410;2023-08-07T09:00:33;1.90;;;0.45;;
71572;SDS011;59408;51.032;9.410;2023-08-07T09:03:02;1.23;;;0.40;;
71572;SDS011;59408;51.032;9.410;2023-08-07T09:05:29;4.22;;;0.50;;
71572;SDS011;59408;51.032;9.410;2023-08-07T09:07:56;2.65;;;0.60;;
71572;SDS011;59408;51.032;9.410;2023-08-07T09:10:23;2.10;;;0.40;;
71572;SDS011;59408;51.032;9.410;2023-08-07T09:12:53;2.20;;;0.50;;
71572;SDS011;59408;51.032;9.410;2023-08-07T09:15:22;1.65;;;0.30;;
71572;SDS011;59408;51.032;9.410;2023-08-07T09:17:50;2.88;;;0.40;;
71572;SDS011;59408;51.032;9.410;2023-08-07T09:20:19;2.03;;;0.40;;
71572;SDS011;59408;51.032;9.410;2023-08-07T09:22:46;2.87;;;0.40;;
71572;SDS011;59408;51.032;9.410;2023-08-07T09:25:14;1.08;;;0.40;;
71572;SDS011;59408;51.032;9.410;2023-08-07T09:27:40;1.63;;;0.40;;
71572;SDS011;59408;51.032;9.410;2023-08-07T09:30:08;2.88;;;0.40;;
71572;SDS011;59408;51.032;9.410;2023-08-07T09:32:35;1.40;;;0.47;;
71572;SDS011;59408;51.032;9.410;2023-08-07T09:35:02;1.47;;;0.40;;
71572;SDS011;59408;51.032;9.410;2023-08-07T09:37:31;0.90;;;0.30;;
71572;SDS011;59408;51.032;9.410;2023-08-07T09:39:59;1.50;;;0.35;;
71572;SDS011;59408;51.032;9.410;2023-08-07T09:42:26;1.17;;;0.32;;
71572;SDS011;59408;51.032;9.410;2023-08-07T09:44:57;1.05;;;0.40;;
71572;SDS011;59408;51.032;9.410;2023-08-07T09:47:24;1.10;;;0.40;;
71572;SDS011;59408;51.032;9.410;2023-08-07T09:49:51;7.07;;;2.67;;
71572;SDS011;59408;51.032;9.410;2023-08-07T09:52:21;1.45;;;0.40;;
71572;SDS011;59408;51.032;9.410;2023-08-07T09:54:49;2.55;;;0.55;;
71572;SDS011;59408;51.032;9.410;2023-08-07T09:57:16;1.60;;;0.43;;
71572;SDS011;59408;51.032;9.410;2023-08-07T09:59:43;1.70;;;0.40;;
71572;SDS011;59408;51.032;9.410;2023-08-07T10:02:15;1.65;;;0.32;;
71572;SDS011;59408;51.032;9.410;2023-08-07T10:04:42;1.40;;;0.35;;
71572;SDS011;59408;51.032;9.410;2023-08-07T10:07:09;1.85;;;0.40;;
71572;SDS011;59408;51.032;9.410;2023-08-07T10:09:38;2.25;;;0.40;;
71572;SDS011;59408;51.032;9.410;2023-08-07T10:12:07;1.73;;;0.40;;
71572;SDS011;59408;51.032;9.410;2023-08-07T10:14:34;1.20;;;0.30;;
71572;SDS011;59408;51.032;9.410;2023-08-07T10:17:01;1.13;;;0.30;;
71572;SDS011;59408;51.032;9.410;2023-08-07T10:19:28;1.88;;;0.50;;
71572;SDS011;59408;51.032;9.410;2023-08-07T10:21:55;1.40;;;0.40;;
71572;SDS011;59408;51.032;9.410;2023-08-07T10:24:22;2.60;;;0.50;;
71572;SDS011;59408;51.032;9.410;2023-08-07T10:26:49;1.70;;;0.50;;
71572;SDS011;59408;51.032;9.410;2023-08-07T10:29:18;1.52;;;0.43;;
71572;SDS011;59408;51.032;9.410;2023-08-07T10:31:47;1.40;;;0.30;;
71572;SDS011;59408;51.032;9.410;2023-08-07T10:34:15;1.20;;;0.40;;
71572;SDS011;59408;51.032;9.410;2023-08-07T10:36:42;1.47;;;0.50;;
71572;SDS011;59408;51.032;9.410;2023-08-07T10:39:09;1.65;;;0.40;;
71572;SDS011;59408;51.032;9.410;2023-08-07T10:41:40;1.08;;;0.35;;
71572;SDS011;59408;51.032;9.410;2023-08-07T10:44:16;2.17;;;0.52;;
71572;SDS011;59408;51.032;9.410;2023-08-07T10:46:48;2.00;;;0.40;;
71572;SDS011;59408;51.032;9.410;2023-08-07T10:49:35;1.97;;;0.60;;
71572;SDS011;59408;51.032;9.410;2023-08-07T10:52:03;1.63;;;0.40;;
71572;SDS011;59408;51.032;9.410;2023-08-07T10:54:37;1.77;;;0.50;;
71572;SDS011;59408;51.032;9.410;2023-08-07T10:57:04;1.55;;;0.50;;
71572;SDS011;59408;51.032;9.410;2023-08-07T10:59:37;1.92;;;0.50;;
71572;SDS011;59408;51.032;9.410;2023-08-07T11:02:05;2.07;;;0.60;;
71572;SDS011;59408;51.032;9.410;2023-08-07T11:04:39;3.00;;;0.50;;
71572;SDS011;59408;51.032;9.410;2023-08-07T11:07:06;2.42;;;0.70;;
71572;SDS011;59408;51.032;9.410;2023-08-07T11:09:33;2.78;;;0.50;;
71572;SDS011;59408;51.032;9.410;2023-08-07T11:12:00;3.65;;;0.50;;
71572;SDS011;59408;51.032;9.410;2023-08-07T11:14:26;2.13;;;0.50;;
71572;SDS011;59408;51.032;9.410;2023-08-07T11:16:53;3.30;;;1.00;;
71572;SDS011;59408;51.032;9.410;2023-08-07T11:19:22;1.95;;;0.70;;
71572;SDS011;59408;51.032;9.410;2023-08-07T11:21:49;3.55;;;0.90;;
71572;SDS011;59408;51.032;9.410;2023-08-07T11:24:15;4.85;;;1.30;;
71572;SDS011;59408;51.032;9.410;2023-08-07T11:26:43;2.97;;;0.70;;
71572;SDS011;59408;51.032;9.410;2023-08-07T11:29:10;3.45;;;0.60;;
71572;SDS011;59408;51.032;9.410;2023-08-07T11:31:36;3.70;;;1.45;;
71572;SDS011;59408;51.032;9.410;2023-08-07T11:34:03;2.08;;;0.60;;
71572;SDS011;59408;51.032;9.410;2023-08-07T11:36:31;3.65;;;1.10;;
71572;SDS011;59408;51.032;9.410;2023-08-07T11:38:58;2.77;;;0.87;;
71572;SDS011;59408;51.032;9.410;2023-08-07T11:41:24;2.20;;;0.60;;
71572;SDS011;59408;51.032;9.410;2023-08-07T11:43:51;2.75;;;0.90;;
71572;SDS011;59408;51.032;9.410;2023-08-07T11:46:17;7.40;;;1.23;;
71572;SDS011;59408;51.032;9.410;2023-08-07T11:48:44;5.43;;;1.17;;
71572;SDS011;59408;51.032;9.410;2023-08-07T11:51:11;4.27;;;1.10;;
71572;SDS011;59408;51.032;9.410;2023-08-07T11:53:39;3.72;;;1.05;;
71572;SDS011;59408;51.032;9.410;2023-08-07T11:56:07;3.08;;;0.80;;
71572;SDS011;59408;51.032;9.410;2023-08-07T11:58:35;3.95;;;0.90;;
71572;SDS011;59408;51.032;9.410;2023-08-07T12:01:03;2.75;;;0.70;;
71572;SDS011;59408;51.032;9.410;2023-08-07T12:03:31;4.13;;;0.73;;
71572;SDS011;59408;51.032;9.410;2023-08-07T12:06:01;3.30;;;0.63;;
71572;SDS011;59408;51.032;9.410;2023-08-07T12:08:30;3.30;;;0.60;;
71572;SDS011;59408;51.032;9.410;2023-08-07T12:11:00;4.13;;;0.90;;
71572;SDS011;59408;51.032;9.410;2023-08-07T12:13:28;4.78;;;1.05;;
71572;SDS011;59408;51.032;9.410;2023-08-07T12:15:55;3.80;;;1.37;;
71572;SDS011;59408;51.032;9.410;2023-08-07T12:18:23;5.88;;;1.70;;
71572;SDS011;59408;51.032;9.410;2023-08-07T12:20:52;4.97;;;1.10;;
71572;SDS011;59408;51.032;9.410;2023-08-07T12:23:22;4.35;;;1.38;;
71572;SDS011;59408;51.032;9.410;2023-08-07T12:25:49;5.05;;;1.50;;
71572;SDS011;59408;51.032;9.410;2023-08-07T12:28:17;5.07;;;1.50;;
71572;SDS011;59408;51.032;9.410;2023-08-07T12:30:44;4.18;;;1.05;;
71572;SDS011;59408;51.032;9.410;2023-08-07T12:33:11;4.43;;;1.20;;
71572;SDS011;59408;51.032;9.410;2023-08-07T12:35:39;4.63;;;1.50;;
71572;SDS011;59408;51.032;9.410;2023-08-07T12:38:06;5.38;;;1.50;;
71572;SDS011;59408;51.032;9.410;2023-08-07T12:40:33;5.90;;;1.20;;
71572;SDS011;59408;51.032;9.410;2023-08-07T12:43:02;4.43;;;1.30;;
71572;SDS011;59408;51.032;9.410;2023-08-07T12:45:30;5.00;;;1.20;;
71572;SDS011;59408;51.032;9.410;2023-08-07T12:48:00;6.85;;;1.42;;
71572;SDS011;59408;51.032;9.410;2023-08-07T12:50:27;6.03;;;1.42;;
71572;SDS011;59408;51.032;9.410;2023-08-07T12:52:55;5.50;;;1.20;;
71572;SDS011;59408;51.032;9.410;2023-08-07T12:55:21;4.47;;;1.33;;
71572;SDS011;59408;51.032;9.410;2023-08-07T12:57:48;3.92;;;1.20;;
71572;SDS011;59408;51.032;9.410;2023-08-07T13:00:15;4.40;;;1.17;;
71572;SDS011;59408;51.032;9.410;2023-08-07T13:02:44;4.80;;;1.30;;
71572;SDS011;59408;51.032;9.410;2023-08-07T13:05:12;3.57;;;1.17;;
71572;SDS011;59408;51.032;9.410;2023-08-07T13:07:39;4.53;;;1.42;;
71572;SDS011;59408;51.032;9.410;2023-08-07T13:10:07;6.35;;;1.27;;
71572;SDS011;59408;51.032;9.410;2023-08-07T13:12:35;6.57;;;1.40;;
71572;SDS011;59408;51.032;9.410;2023-08-07T13:15:02;5.47;;;1.40;;
71572;SDS011;59408;51.032;9.410;2023-08-07T13:17:29;6.10;;;1.80;;
71572;SDS011;59408;51.032;9.410;2023-08-07T13:19:57;5.43;;;1.70;;
71572;SDS011;59408;51.032;9.410;2023-08-07T13:22:24;7.35;;;1.80;;
71572;SDS011;59408;51.032;9.410;2023-08-07T13:24:50;5.07;;;1.70;;
71572;SDS011;59408;51.032;9.410;2023-08-07T13:27:17;5.07;;;1.50;;
71572;SDS011;59408;51.032;9.410;2023-08-07T13:29:43;5.73;;;2.00;;
71572;SDS011;59408;51.032;9.410;2023-08-07T13:32:10;6.35;;;1.50;;
71572;SDS011;59408;51.032;9.410;2023-08-07T13:34:37;7.38;;;1.80;;
71572;SDS011;59408;51.032;9.410;2023-08-07T13:37:05;7.90;;;1.77;;
71572;SDS011;59408;51.032;9.410;2023-08-07T13:39:32;5.95;;;1.65;;
71572;SDS011;59408;51.032;9.410;2023-08-07T13:41:58;5.37;;;1.70;;
71572;SDS011;59408;51.032;9.410;2023-08-07T13:44:25;5.07;;;1.45;;
71572;SDS011;59408;51.032;9.410;2023-08-07T13:46:52;5.32;;;1.65;;
71572;SDS011;59408;51.032;9.410;2023-08-07T13:49:18;6.30;;;1.63;;
71572;SDS011;59408;51.032;9.410;2023-08-07T13:51:45;6.00;;;1.73;;
71572;SDS011;59408;51.032;9.410;2023-08-07T13:54:13;6.00;;;1.60;;
71572;SDS011;59408;51.032;9.410;2023-08-07T13:56:40;8.65;;;1.88;;
71572;SDS011;59408;51.032;9.410;2023-08-07T13:59:06;5.80;;;1.80;;
71572;SDS011;59408;51.032;9.410;2023-08-07T14:01:33;6.32;;;1.55;;
71572;SDS011;59408;51.032;9.410;2023-08-07T14:04:00;6.63;;;1.90;;
71572;SDS011;59408;51.032;9.410;2023-08-07T14:06:27;6.47;;;1.80;;
71572;SDS011;59408;51.032;9.410;2023-08-07T14:08:53;6.07;;;2.13;;
71572;SDS011;59408;51.032;9.410;2023-08-07T14:11:21;7.45;;;1.98;;
71572;SDS011;59408;51.032;9.410;2023-08-07T14:13:48;5.85;;;1.65;;
71572;SDS011;59408;51.032;9.410;2023-08-07T14:16:15;6.50;;;2.10;;
71572;SDS011;59408;51.032;9.410;2023-08-07T14:18:41;5.03;;;1.83;;
71572;SDS011;59408;51.032;9.410;2023-08-07T14:21:08;6.40;;;2.10;;
71572;SDS011;59408;51.032;9.410;2023-08-07T14:23:35;7.68;;;2.10;;
71572;SDS011;59408;51.032;9.410;2023-08-07T14:26:01;8.18;;;2.10;;
71572;SDS011;59408;51.032;9.410;2023-08-07T14:28:29;6.95;;;2.33;;
71572;SDS011;59408;51.032;9.410;2023-08-07T14:30:57;7.10;;;2.27;;
71572;SDS011;59408;51.032;9.410;2023-08-07T14:33:24;7.55;;;2.08;;
71572;SDS011;59408;51.032;9.410;2023-08-07T14:35:50;5.50;;;2.10;;
71572;SDS011;59408;51.032;9.410;2023-08-07T14:38:17;6.35;;;2.15;;
71572;SDS011;59408;51.032;9.410;2023-08-07T14:40:44;5.68;;;1.90;;
71572;SDS011;59408;51.032;9.410;2023-08-07T14:43:10;7.27;;;2.07;;
71572;SDS011;59408;51.032;9.410;2023-08-07T14:45:38;6.43;;;2.10;;
71572;SDS011;59408;51.032;9.410;2023-08-07T14:48:05;8.63;;;2.80;;